sensor_id;sensor_type;location;lat;lon;timestamp;pressure;altitude;pressure_sealevel;temperature;humidity
50550;BME280;36505;52.512;13.460;2023-04-09T00:00:18;102175.00;;;5.30;72.66
50550;BME280;36505;52.512;13.460;2023-04-09T00:02:43;102175.34;;;5.27;72.96
50550;BME280;36505;52.512;13.460;2023-04-09T00:05:09;102180.13;;;5.25;73.19
50550;BME280;36505;52.512;13.460;2023-04-09T00:07:34;102178.41;;;5.24;72.90
50550;BME280;36505;52.512;13.460;2023-04-09T00:10:00;102185.03;;;5.21;73.17
50550;BME280;36505;52.512;13.460;2023-04-09T00:12:25;102175.19;;;5.20;73.59
50550;BME280;36505;52.512;13.460;2023-04-09T00:14:50;102178.09;;;5.19;73.72
50550;BME280;36505;52.512;13.460;2023-04-09T00:17:16;102164.72;;;5.09;73.94
50550;BME280;36505;52.512;13.460;2023-04-09T00:19:41;102171.47;;;5.13;73.81
50550;BME280;36505;52.512;13.460;2023-04-09T00:22:07;102173.53;;;5.11;73.67
50550;BME280;36505;52.512;13.460;2023-04-09T00:24:32;102168.28;;;5.09;74.10
50550;BME280;36505;52.512;13.460;2023-04-09T00:26:57;102169.97;;;5.10;74.47
50550;BME280;36505;52.512;13.460;2023-04-09T00:29:23;102165.56;;;5.09;74.87
50550;BME280;36505;52.512;13.460;2023-04-09T00:31:48;102166.09;;;5.05;74.69
50550;BME280;36505;52.512;13.460;2023-04-09T00:34:13;102168.63;;;5.06;75.08
50550;BME280;36505;52.512;13.460;2023-04-09T00:36:39;102175.06;;;5.05;74.93
50550;BME280;36505;52.512;13.460;2023-04-09T00:39:05;102164.41;;;5.04;75.09
50550;BME280;36505;52.512;13.460;2023-04-09T00:41:30;102171.69;;;5.03;75.32
50550;BME280;36505;52.512;13.460;2023-04-09T00:43:55;102165.56;;;5.01;75.29
50550;BME280;36505;52.512;13.460;2023-04-09T00:46:21;102166.59;;;5.00;75.42
50550;BME280;36505;52.512;13.460;2023-04-09T00:48:47;102175.09;;;4.97;75.32
50550;BME280;36505;52.512;13.460;2023-04-09T00:51:12;102169.84;;;4.96;75.57
50550;BME280;36505;52.512;13.460;2023-04-09T00:53:37;102167.47;;;4.93;75.87
50550;BME280;36505;52.512;13.460;2023-04-09T00:56:03;102174.75;;;4.92;75.82
50550;BME280;36505;52.512;13.460;2023-04-09T00:58:30;102169.53;;;4.91;76.04
50550;BME280;36505;52.512;13.460;2023-04-09T01:00:55;102168.84;;;4.89;75.92
50550;BME280;36505;52.512;13.460;2023-04-09T01:03:21;102165.59;;;4.85;75.69
50550;BME280;36505;52.512;13.460;2023-04-09T01:05:57;102173.09;;;4.83;75.91
50550;BME280;36505;52.512;13.460;2023-04-09T01:11:08;102164.25;;;4.81;76.73
50550;BME280;36505;52.512;13.460;2023-04-09T01:16:21;102171.56;;;4.81;76.66
50550;BME280;36505;52.512;13.460;2023-04-09T01:18:56;102168.34;;;4.77;76.58
50550;BME280;36505;52.512;13.460;2023-04-09T01:21:26;102161.56;;;4.73;76.58
50550;BME280;36505;52.512;13.460;2023-04-09T01:29:19;102170.91;;;4.70;77.27
50550;BME280;36505;52.512;13.460;2023-04-09T01:31:45;102175.66;;;4.68;77.28
50550;BME280;36505;52.512;13.460;2023-04-09T01:34:13;102175.97;;;4.65;77.46
50550;BME280;36505;52.512;13.460;2023-04-09T01:36:39;102173.25;;;4.65;77.45
50550;BME280;36505;52.512;13.460;2023-04-09T01:39:06;102177.84;;;4.65;77.80
50550;BME280;36505;52.512;13.460;2023-04-09T01:41:33;102179.06;;;4.62;77.71
50550;BME280;36505;52.512;13.460;2023-04-09T01:44:00;102176.81;;;4.58;77.83
50550;BME280;36505;52.512;13.460;2023-04-09T01:46:28;102180.59;;;4.57;77.99
50550;BME280;36505;52.512;13.460;2023-04-09T01:48:54;102177.88;;;4.57;78.35
50550;BME280;36505;52.512;13.460;2023-04-09T01:51:19;102178.88;;;4.56;78.27
50550;BME280;36505;52.512;13.460;2023-04-09T01:53:45;102171.06;;;4.53;78.48
50550;BME280;36505;52.512;13.460;2023-04-09T01:56:10;102180.59;;;4.49;78.49
50550;BME280;36505;52.512;13.460;2023-04-09T01:58:35;102186.34;;;4.46;78.48
50550;BME280;36505;52.512;13.460;2023-04-09T02:01:09;102182.78;;;4.45;78.76
50550;BME280;36505;52.512;13.460;2023-04-09T02:03:57;102181.91;;;4.45;79.11
50550;BME280;36505;52.512;13.460;2023-04-09T02:06:37;102182.09;;;4.43;79.10
50550;BME280;36505;52.512;13.460;2023-04-09T02:09:06;102184.13;;;4.41;79.37
50550;BME280;36505;52.512;13.460;2023-04-09T02:11:33;102188.19;;;4.37;79.19
50550;BME280;36505;52.512;13.460;2023-04-09T02:14:03;102186.16;;;4.39;79.30
50550;BME280;36505;52.512;13.460;2023-04-09T02:16:30;102191.75;;;4.37;79.49
50550;BME280;36505;52.512;13.460;2023-04-09T02:18:56;102190.06;;;4.36;79.28
50550;BME280;36505;52.512;13.460;2023-04-09T02:21:26;102178.22;;;4.29;79.19
50550;BME280;36505;52.512;13.460;2023-04-09T02:23:53;102185.31;;;4.30;79.34
50550;BME280;36505;52.512;13.460;2023-04-09T02:26:18;102178.22;;;4.29;79.37
50550;BME280;36505;52.512;13.460;2023-04-09T02:28:43;102183.63;;;4.29;79.55
50550;BME280;36505;52.512;13.460;2023-04-09T02:31:09;102188.38;;;4.27;79.53
50550;BME280;36505;52.512;13.460;2023-04-09T02:33:35;102177.19;;;4.22;79.57
50550;BME280;36505;52.512;13.460;2023-04-09T02:36:00;102179.69;;;4.24;79.92
50550;BME280;36505;52.512;13.460;2023-04-09T02:38:26;102188.88;;;4.23;79.52
50550;BME280;36505;52.512;13.460;2023-04-09T02:40:51;102185.47;;;4.21;79.75
50550;BME280;36505;52.512;13.460;2023-04-09T02:43:16;102185.47;;;4.21;79.83
50550;BME280;36505;52.512;13.460;2023-04-09T02:45:42;102174.97;;;4.18;80.13
50550;BME280;36505;52.512;13.460;2023-04-09T02:48:07;102182.06;;;4.19;79.67
50550;BME280;36505;52.512;13.460;2023-04-09T02:50:32;102176.16;;;4.15;79.99
50550;BME280;36505;52.512;13.460;2023-04-09T02:52:58;102179.53;;;4.17;80.04
50550;BME280;36505;52.512;13.460;2023-04-09T02:55:23;102182.25;;;4.17;80.39
50550;BME280;36505;52.512;13.460;2023-04-09T02:57:49;102180.53;;;4.16;79.88
50550;BME280;36505;52.512;13.460;2023-04-09T03:00:14;102182.59;;;4.14;80.42
50550;BME280;36505;52.512;13.460;2023-04-09T03:02:40;102175.13;;;4.08;80.32
50550;BME280;36505;52.512;13.460;2023-04-09T03:05:06;102178.50;;;4.10;80.17
50550;BME280;36505;52.512;13.460;2023-04-09T03:07:31;102174.13;;;4.09;80.15
50550;BME280;36505;52.512;13.460;2023-04-09T03:09:56;102177.66;;;4.10;80.36
50550;BME280;36505;52.512;13.460;2023-04-09T03:12:22;102179.53;;;4.09;80.23
50550;BME280;36505;52.512;13.460;2023-04-09T03:14:47;102170.03;;;4.05;80.01
50550;BME280;36505;52.512;13.460;2023-04-09T03:17:13;102169.72;;;4.08;79.97
50550;BME280;36505;52.512;13.460;2023-04-09T03:19:38;102180.56;;;4.08;80.31
50550;BME280;36505;52.512;13.460;2023-04-09T03:22:03;102177.00;;;4.08;80.15
50550;BME280;36505;52.512;13.460;2023-04-09T03:24:30;102172.59;;;4.07;80.35
50550;BME280;36505;52.512;13.460;2023-04-09T03:26:56;102165.13;;;4.01;80.79
50550;BME280;36505;52.512;13.460;2023-04-09T03:29:21;102169.84;;;3.98;80.53
50550;BME280;36505;52.512;13.460;2023-04-09T03:31:46;102171.22;;;3.94;80.84
50550;BME280;36505;52.512;13.460;2023-04-09T03:34:12;102166.28;;;3.90;80.81
50550;BME280;36505;52.512;13.460;2023-04-09T03:36:37;102162.22;;;3.86;80.87
50550;BME280;36505;52.512;13.460;2023-04-09T03:39:03;102166.94;;;3.84;81.09
50550;BME280;36505;52.512;13.460;2023-04-09T03:41:28;102171.16;;;3.78;81.55
50550;BME280;36505;52.512;13.460;2023-04-09T03:43:53;102166.25;;;3.74;81.93
50550;BME280;36505;52.512;13.460;2023-04-09T03:46:20;102167.41;;;3.71;82.34
50550;BME280;36505;52.512;13.460;2023-04-09T03:48:45;102168.22;;;3.64;82.82
50550;BME280;36505;52.512;13.460;2023-04-09T03:51:12;102167.88;;;3.58;82.93
50550;BME280;36505;52.512;13.460;2023-04-09T03:53:38;102164.66;;;3.47;83.45
50550;BME280;36505;52.512;13.460;2023-04-09T03:56:03;102172.91;;;3.45;84.07
50550;BME280;36505;52.512;13.460;2023-04-09T03:58:29;102163.41;;;3.41;84.31
50550;BME280;36505;52.512;13.460;2023-04-09T04:00:54;102168.63;;;3.35;83.97
50550;BME280;36505;52.512;13.460;2023-04-09T04:03:20;102160.50;;;3.27;84.44
50550;BME280;36505;52.512;13.460;2023-04-09T04:05:45;102160.44;;;3.18;84.51
50550;BME280;36505;52.512;13.460;2023-04-09T04:08:10;102166.19;;;3.15;84.91
50550;BME280;36505;52.512;13.460;2023-04-09T04:10:36;102174.63;;;3.12;85.29
50550;BME280;36505;52.512;13.460;2023-04-09T04:13:01;102175.63;;;3.11;85.66
50550;BME280;36505;52.512;13.460;2023-04-09T04:15:27;102171.88;;;3.04;86.08
50550;BME280;36505;52.512;13.460;2023-04-09T04:17:53;102174.38;;;2.98;86.63
50550;BME280;36505;52.512;13.460;2023-04-09T04:20:18;102173.69;;;2.96;87.04
50550;BME280;36505;52.512;13.460;2023-04-09T04:22:44;102181.94;;;2.94;87.22
50550;BME280;36505;52.512;13.460;2023-04-09T04:25:09;102180.94;;;2.95;87.81
50550;BME280;36505;52.512;13.460;2023-04-09T04:27:35;102185.19;;;2.98;87.91
50550;BME280;36505;52.512;13.460;2023-04-09T04:30:00;102187.56;;;3.01;88.72
50550;BME280;36505;52.512;13.460;2023-04-09T04:32:26;102197.78;;;3.07;89.31
50550;BME280;36505;52.512;13.460;2023-04-09T04:34:52;102195.59;;;3.10;89.69
50550;BME280;36505;52.512;13.460;2023-04-09T04:37:18;102189.53;;;3.16;90.08
50550;BME280;36505;52.512;13.460;2023-04-09T04:39:43;102191.38;;;3.16;90.99
50550;BME280;36505;52.512;13.460;2023-04-09T04:42:08;102188.38;;;3.19;91.37
50550;BME280;36505;52.512;13.460;2023-04-09T04:44:34;102192.97;;;3.27;91.81
50550;BME280;36505;52.512;13.460;2023-04-09T04:46:59;102196.91;;;3.32;91.95
50550;BME280;36505;52.512;13.460;2023-04-09T04:49:25;102186.97;;;3.41;92.23
50550;BME280;36505;52.512;13.460;2023-04-09T04:51:50;102192.88;;;3.44;92.33
50550;BME280;36505;52.512;13.460;2023-04-09T04:54:15;102189.53;;;3.50;92.90
50550;BME280;36505;52.512;13.460;2023-04-09T04:56:41;102190.22;;;3.52;93.22
50550;BME280;36505;52.512;13.460;2023-04-09T04:59:06;102189.88;;;3.55;93.33
50550;BME280;36505;52.512;13.460;2023-04-09T05:01:32;102200.06;;;3.62;93.77
50550;BME280;36505;52.512;13.460;2023-04-09T05:03:57;102192.47;;;3.65;93.71
50550;BME280;36505;52.512;13.460;2023-04-09T05:06:22;102207.75;;;3.74;93.72
50550;BME280;36505;52.512;13.460;2023-04-09T05:08:48;102201.81;;;3.79;93.97
50550;BME280;36505;52.512;13.460;2023-04-09T05:11:13;102212.53;;;3.88;93.88
50550;BME280;36505;52.512;13.460;2023-04-09T05:13:41;102207.44;;;3.93;94.28
50550;BME280;36505;52.512;13.460;2023-04-09T05:16:06;102218.47;;;4.00;94.15
50550;BME280;36505;52.512;13.460;2023-04-09T05:18:31;102213.41;;;4.05;94.16
50550;BME280;36505;52.512;13.460;2023-04-09T05:20:57;102215.59;;;4.10;94.40
50550;BME280;36505;52.512;13.460;2023-04-09T05:23:22;102211.41;;;4.15;94.45
50550;BME280;36505;52.512;13.460;2023-04-09T05:25:48;102211.75;;;4.20;94.71
50550;BME280;36505;52.512;13.460;2023-04-09T05:28:14;102204.28;;;4.22;94.35
50550;BME280;36505;52.512;13.460;2023-04-09T05:30:44;102219.22;;;4.34;94.42
50550;BME280;36505;52.512;13.460;2023-04-09T05:33:09;102211.25;;;4.33;94.30
50550;BME280;36505;52.512;13.460;2023-04-09T05:35:37;102217.00;;;4.30;94.75
50550;BME280;36505;52.512;13.460;2023-04-09T05:38:03;102217.19;;;4.36;94.77
50550;BME280;36505;52.512;13.460;2023-04-09T05:40:28;102216.00;;;4.39;94.95
50550;BME280;36505;52.512;13.460;2023-04-09T05:42:54;102218.72;;;4.47;94.95
50550;BME280;36505;52.512;13.460;2023-04-09T05:45:19;102216.88;;;4.56;94.73
50550;BME280;36505;52.512;13.460;2023-04-09T05:47:45;102219.22;;;4.59;94.46
50550;BME280;36505;52.512;13.460;2023-04-09T05:50:10;102211.44;;;4.64;94.07
50550;BME280;36505;52.512;13.460;2023-04-09T05:52:36;102219.22;;;4.75;93.94
50550;BME280;36505;52.512;13.460;2023-04-09T05:55:01;102221.59;;;4.78;93.69
50550;BME280;36505;52.512;13.460;2023-04-09T05:57:27;102225.66;;;4.90;93.58
50550;BME280;36505;52.512;13.460;2023-04-09T05:59:54;102212.94;;;4.91;93.23
50550;BME280;36505;52.512;13.460;2023-04-09T06:02:20;102211.03;;;4.99;92.66
50550;BME280;36505;52.512;13.460;2023-04-09T06:04:45;102210.34;;;5.05;92.25
50550;BME280;36505;52.512;13.460;2023-04-09T06:07:11;102213.06;;;5.13;91.90
50550;BME280;36505;52.512;13.460;2023-04-09T06:09:36;102204.56;;;5.16;91.25
50550;BME280;36505;52.512;13.460;2023-04-09T06:12:02;102206.94;;;5.20;90.73
50550;BME280;36505;52.512;13.460;2023-04-09T06:14:28;102205.91;;;5.21;90.21
50550;BME280;36505;52.512;13.460;2023-04-09T06:16:54;102214.56;;;5.24;90.01
50550;BME280;36505;52.512;13.460;2023-04-09T06:19:19;102217.09;;;5.26;90.12
50550;BME280;36505;52.512;13.460;2023-04-09T06:21:44;102215.75;;;5.30;90.04
50550;BME280;36505;52.512;13.460;2023-04-09T06:24:10;102215.56;;;5.31;89.62
50550;BME280;36505;52.512;13.460;2023-04-09T06:26:35;102204.03;;;5.29;89.77
50550;BME280;36505;52.512;13.460;2023-04-09T06:29:01;102216.38;;;5.40;89.61
50550;BME280;36505;52.512;13.460;2023-04-09T06:31:27;102216.03;;;5.43;89.82
50550;BME280;36505;52.512;13.460;2023-04-09T06:33:52;102221.28;;;5.52;89.50
50550;BME280;36505;52.512;13.460;2023-04-09T06:36:18;102217.19;;;5.56;89.14
50550;BME280;36505;52.512;13.460;2023-04-09T06:38:44;102220.03;;;5.63;88.76
50550;BME280;36505;52.512;13.460;2023-04-09T06:41:09;102211.84;;;5.71;88.85
50550;BME280;36505;52.512;13.460;2023-04-09T06:43:36;102215.19;;;5.81;88.38
50550;BME280;36505;52.512;13.460;2023-04-09T06:46:02;102211.91;;;5.94;87.48
50550;BME280;36505;52.512;13.460;2023-04-09T06:48:27;102220.03;;;6.02;86.87
50550;BME280;36505;52.512;13.460;2023-04-09T06:50:53;102219.69;;;6.05;86.47
50550;BME280;36505;52.512;13.460;2023-04-09T06:53:18;102220.16;;;6.09;86.04
50550;BME280;36505;52.512;13.460;2023-04-09T06:55:44;102226.75;;;6.14;86.02
50550;BME280;36505;52.512;13.460;2023-04-09T06:58:09;102216.25;;;6.11;85.54
50550;BME280;36505;52.512;13.460;2023-04-09T07:00:35;102230.28;;;6.23;85.48
50550;BME280;36505;52.512;13.460;2023-04-09T07:03:00;102227.03;;;6.27;85.32
50550;BME280;36505;52.512;13.460;2023-04-09T07:05:26;102232.53;;;6.42;84.20
50550;BME280;36505;52.512;13.460;2023-04-09T07:07:51;102231.44;;;6.51;83.73
50550;BME280;36505;52.512;13.460;2023-04-09T07:10:16;102229.09;;;6.48;83.31
50550;BME280;36505;52.512;13.460;2023-04-09T07:12:42;102241.31;;;6.52;83.16
50550;BME280;36505;52.512;13.460;2023-04-09T07:15:07;102232.00;;;6.47;83.25
50550;BME280;36505;52.512;13.460;2023-04-09T07:17:33;102241.13;;;6.54;83.42
50550;BME280;36505;52.512;13.460;2023-04-09T07:19:59;102246.88;;;6.59;83.24
50550;BME280;36505;52.512;13.460;2023-04-09T07:22:26;102240.56;;;6.58;83.12
50550;BME280;36505;52.512;13.460;2023-04-09T07:24:52;102244.63;;;6.62;83.13
50550;BME280;36505;52.512;13.460;2023-04-09T07:27:22;102248.41;;;6.61;83.14
50550;BME280;36505;52.512;13.460;2023-04-09T07:29:48;102245.19;;;6.58;83.21
50550;BME280;36505;52.512;13.460;2023-04-09T07:32:14;102247.31;;;6.48;83.79
50550;BME280;36505;52.512;13.460;2023-04-09T07:34:43;102248.56;;;6.37;84.38
50550;BME280;36505;52.512;13.460;2023-04-09T07:37:08;102248.22;;;6.40;84.83
50550;BME280;36505;52.512;13.460;2023-04-09T07:39:34;102236.09;;;6.43;84.63
50550;BME280;36505;52.512;13.460;2023-04-09T07:42:03;102239.25;;;6.54;84.25
50550;BME280;36505;52.512;13.460;2023-04-09T07:44:32;102248.00;;;6.64;84.11
50550;BME280;36505;52.512;13.460;2023-04-09T07:46:57;102249.81;;;6.72;83.22
50550;BME280;36505;52.512;13.460;2023-04-09T07:49:23;102230.59;;;6.73;82.87
50550;BME280;36505;52.512;13.460;2023-04-09T07:51:48;102244.66;;;6.77;82.77
50550;BME280;36505;52.512;13.460;2023-04-09T07:54:13;102231.56;;;6.81;83.14
50550;BME280;36505;52.512;13.460;2023-04-09T07:56:39;102240.63;;;6.96;82.99
50550;BME280;36505;52.512;13.460;2023-04-09T07:59:04;102242.88;;;7.07;82.57
50550;BME280;36505;52.512;13.460;2023-04-09T08:01:30;102238.09;;;7.09;82.37
50550;BME280;36505;52.512;13.460;2023-04-09T08:03:55;102253.13;;;7.20;82.10
50550;BME280;36505;52.512;13.460;2023-04-09T08:06:21;102244.13;;;7.19;82.00
50550;BME280;36505;52.512;13.460;2023-04-09T08:08:46;102246.09;;;7.25;81.94
50550;BME280;36505;52.512;13.460;2023-04-09T08:11:12;102245.34;;;7.31;81.71
50550;BME280;36505;52.512;13.460;2023-04-09T08:13:37;102259.91;;;7.38;81.55
50550;BME280;36505;52.512;13.460;2023-04-09T08:16:03;102253.94;;;7.43;81.32
50550;BME280;36505;52.512;13.460;2023-04-09T08:18:29;102256.84;;;7.41;81.31
50550;BME280;36505;52.512;13.460;2023-04-09T08:20:55;102267.06;;;7.39;81.63
50550;BME280;36505;52.512;13.460;2023-04-09T08:23:20;102258.63;;;7.34;81.57
50550;BME280;36505;52.512;13.460;2023-04-09T08:25:46;102260.59;;;7.40;81.72
50550;BME280;36505;52.512;13.460;2023-04-09T08:28:11;102266.97;;;7.33;81.95
50550;BME280;36505;52.512;13.460;2023-04-09T08:30:37;102270.63;;;7.40;81.81
50550;BME280;36505;52.512;13.460;2023-04-09T08:33:02;102274.31;;;7.47;81.48
50550;BME280;36505;52.512;13.460;2023-04-09T08:35:31;102271.69;;;7.53;80.60
50550;BME280;36505;52.512;13.460;2023-04-09T08:37:57;102275.00;;;7.64;80.05
50550;BME280;36505;52.512;13.460;2023-04-09T08:40:23;102266.69;;;7.72;79.62
50550;BME280;36505;52.512;13.460;2023-04-09T08:42:53;102270.16;;;7.80;79.42
50550;BME280;36505;52.512;13.460;2023-04-09T08:45:20;102269.50;;;7.93;79.41
50550;BME280;36505;52.512;13.460;2023-04-09T08:47:47;102266.94;;;8.06;78.77
50550;BME280;36505;52.512;13.460;2023-04-09T08:50:13;102265.03;;;8.21;78.30
50550;BME280;36505;52.512;13.460;2023-04-09T08:52:39;102256.72;;;8.29;77.55
50550;BME280;36505;52.512;13.460;2023-04-09T08:55:05;102271.59;;;8.63;76.69
50550;BME280;36505;52.512;13.460;2023-04-09T08:57:37;102266.75;;;8.80;75.74
50550;BME280;36505;52.512;13.460;2023-04-09T09:00:03;102268.63;;;9.00;75.42
50550;BME280;36505;52.512;13.460;2023-04-09T09:02:29;102259.91;;;9.18;74.15
50550;BME280;36505;52.512;13.460;2023-04-09T09:04:55;102257.03;;;9.26;73.71
50550;BME280;36505;52.512;13.460;2023-04-09T09:07:26;102257.56;;;9.43;72.61
50550;BME280;36505;52.512;13.460;2023-04-09T09:09:56;102260.88;;;9.32;72.06
50550;BME280;36505;52.512;13.460;2023-04-09T09:14:58;102269.91;;;9.32;71.55
50550;BME280;36505;52.512;13.460;2023-04-09T09:17:23;102274.34;;;9.33;72.20
50550;BME280;36505;52.512;13.460;2023-04-09T09:19:48;102260.34;;;9.49;72.46
50550;BME280;36505;52.512;13.460;2023-04-09T09:22:14;102264.06;;;9.76;71.88
50550;BME280;36505;52.512;13.460;2023-04-09T09:24:47;102253.44;;;9.88;71.21
50550;BME280;36505;52.512;13.460;2023-04-09T09:27:30;102249.38;;;10.25;69.36
50550;BME280;36505;52.512;13.460;2023-04-09T09:29:57;102254.53;;;10.54;67.89
50550;BME280;36505;52.512;13.460;2023-04-09T09:32:22;102250.56;;;10.77;67.31
50550;BME280;36505;52.512;13.460;2023-04-09T09:35:00;102251.22;;;11.12;66.50
50550;BME280;36505;52.512;13.460;2023-04-09T09:37:26;102254.50;;;11.73;64.11
50550;BME280;36505;52.512;13.460;2023-04-09T09:39:53;102260.78;;;12.76;61.56
50550;BME280;36505;52.512;13.460;2023-04-09T09:42:18;102255.19;;;12.89;59.11
50550;BME280;36505;52.512;13.460;2023-04-09T09:44:44;102252.06;;;12.79;58.70
50550;BME280;36505;52.512;13.460;2023-04-09T09:47:11;102250.19;;;12.48;58.77
50550;BME280;36505;52.512;13.460;2023-04-09T09:49:39;102245.06;;;12.13;59.90
50550;BME280;36505;52.512;13.460;2023-04-09T09:52:09;102237.19;;;12.23;60.33
50550;BME280;36505;52.512;13.460;2023-04-09T09:54:42;102241.66;;;12.87;59.60
50550;BME280;36505;52.512;13.460;2023-04-09T09:57:09;102248.38;;;13.23;58.61
50550;BME280;36505;52.512;13.460;2023-04-09T09:59:40;102238.34;;;13.90;56.97
50550;BME280;36505;52.512;13.460;2023-04-09T10:02:20;102229.06;;;14.50;55.09
50550;BME280;36505;52.512;13.460;2023-04-09T10:04:49;102235.69;;;15.14;53.63
50550;BME280;36505;52.512;13.460;2023-04-09T10:07:18;102218.09;;;16.02;51.67
50550;BME280;36505;52.512;13.460;2023-04-09T10:09:48;102223.41;;;16.60;50.34
50550;BME280;36505;52.512;13.460;2023-04-09T10:12:15;102224.44;;;16.87;48.37
50550;BME280;36505;52.512;13.460;2023-04-09T10:14:41;102213.13;;;16.44;47.64
50550;BME280;36505;52.512;13.460;2023-04-09T10:17:07;102221.56;;;15.97;48.99
50550;BME280;36505;52.512;13.460;2023-04-09T10:19:37;102227.97;;;15.86;48.42
50550;BME280;36505;52.512;13.460;2023-04-09T10:22:08;102228.72;;;15.12;51.13
50550;BME280;36505;52.512;13.460;2023-04-09T10:24:35;102231.81;;;15.03;51.63
50550;BME280;36505;52.512;13.460;2023-04-09T10:27:11;102230.28;;;15.08;52.74
50550;BME280;36505;52.512;13.460;2023-04-09T10:29:44;102229.56;;;15.12;51.44
50550;BME280;36505;52.512;13.460;2023-04-09T10:32:11;102213.25;;;15.11;51.74
50550;BME280;36505;52.512;13.460;2023-04-09T10:34:39;102233.00;;;14.96;51.90
50550;BME280;36505;52.512;13.460;2023-04-09T10:37:13;102226.44;;;15.20;50.74
50550;BME280;36505;52.512;13.460;2023-04-09T10:39:43;102231.38;;;15.07;50.10
50550;BME280;36505;52.512;13.460;2023-04-09T10:42:25;102229.53;;;14.47;52.87
50550;BME280;36505;52.512;13.460;2023-04-09T10:45:04;102232.16;;;14.24;53.06
50550;BME280;36505;52.512;13.460;2023-04-09T10:47:32;102223.69;;;14.07;53.51
50550;BME280;36505;52.512;13.460;2023-04-09T10:50:16;102222.28;;;13.68;54.70
50550;BME280;36505;52.512;13.460;2023-04-09T10:52:42;102233.84;;;13.34;55.83
50550;BME280;36505;52.512;13.460;2023-04-09T10:55:29;102230.72;;;13.30;56.00
50550;BME280;36505;52.512;13.460;2023-04-09T10:57:55;102217.28;;;13.59;56.33
50550;BME280;36505;52.512;13.460;2023-04-09T11:00:20;102221.81;;;13.90;54.82
50550;BME280;36505;52.512;13.460;2023-04-09T11:05:34;102225.16;;;13.73;54.25
50550;BME280;36505;52.512;13.460;2023-04-09T11:10:33;102230.59;;;12.94;56.76
50550;BME280;36505;52.512;13.460;2023-04-09T11:12:59;102225.78;;;12.58;57.79
50550;BME280;36505;52.512;13.460;2023-04-09T11:15:25;102226.88;;;12.50;58.42
50550;BME280;36505;52.512;13.460;2023-04-09T11:17:51;102221.00;;;12.47;59.10
50550;BME280;36505;52.512;13.460;2023-04-09T11:20:19;102221.81;;;12.54;59.17
50550;BME280;36505;52.512;13.460;2023-04-09T11:22:46;102223.59;;;12.42;58.77
50550;BME280;36505;52.512;13.460;2023-04-09T11:25:18;102209.69;;;11.92;59.93
50550;BME280;36505;52.512;13.460;2023-04-09T11:27:44;102215.44;;;11.77;60.63
50550;BME280;36505;52.512;13.460;2023-04-09T11:30:10;102225.19;;;11.54;60.71
50550;BME280;36505;52.512;13.460;2023-04-09T11:32:36;102209.59;;;11.41;61.58
50550;BME280;36505;52.512;13.460;2023-04-09T11:35:01;102205.38;;;11.52;61.52
50550;BME280;36505;52.512;13.460;2023-04-09T11:37:27;102200.69;;;11.59;61.76
50550;BME280;36505;52.512;13.460;2023-04-09T11:39:53;102202.97;;;11.75;62.32
50550;BME280;36505;52.512;13.460;2023-04-09T11:42:19;102194.31;;;11.84;62.30
50550;BME280;36505;52.512;13.460;2023-04-09T11:44:50;102198.22;;;12.02;62.50
50550;BME280;36505;52.512;13.460;2023-04-09T11:47:16;102205.06;;;12.24;60.23
50550;BME280;36505;52.512;13.460;2023-04-09T11:49:43;102205.00;;;12.37;62.33
50550;BME280;36505;52.512;13.460;2023-04-09T11:52:11;102189.34;;;12.38;64.02
50550;BME280;36505;52.512;13.460;2023-04-09T11:54:37;102203.34;;;12.30;61.56
50550;BME280;36505;52.512;13.460;2023-04-09T11:57:03;102201.75;;;12.15;61.31
50550;BME280;36505;52.512;13.460;2023-04-09T11:59:29;102195.25;;;12.03;61.28
50550;BME280;36505;52.512;13.460;2023-04-09T12:01:57;102194.41;;;12.03;61.13
50550;BME280;36505;52.512;13.460;2023-04-09T12:04:23;102189.44;;;11.86;60.62
50550;BME280;36505;52.512;13.460;2023-04-09T12:06:49;102193.47;;;11.71;61.38
50550;BME280;36505;52.512;13.460;2023-04-09T12:09:14;102190.81;;;11.44;62.00
50550;BME280;36505;52.512;13.460;2023-04-09T12:11:44;102191.31;;;11.15;62.64
50550;BME280;36505;52.512;13.460;2023-04-09T12:14:17;102188.59;;;10.95;64.23
50550;BME280;36505;52.512;13.460;2023-04-09T12:16:43;102185.41;;;10.92;64.58
50550;BME280;36505;52.512;13.460;2023-04-09T12:19:10;102187.09;;;10.93;64.58
50550;BME280;36505;52.512;13.460;2023-04-09T12:21:49;102187.53;;;10.90;64.78
50550;BME280;36505;52.512;13.460;2023-04-09T12:24:16;102170.25;;;10.69;65.88
50550;BME280;36505;52.512;13.460;2023-04-09T12:26:43;102184.34;;;10.66;65.80
50550;BME280;36505;52.512;13.460;2023-04-09T12:29:09;102191.97;;;10.71;65.70
50550;BME280;36505;52.512;13.460;2023-04-09T12:31:34;102183.72;;;10.64;66.21
50550;BME280;36505;52.512;13.460;2023-04-09T12:34:00;102189.19;;;10.64;65.96
50550;BME280;36505;52.512;13.460;2023-04-09T12:36:26;102182.66;;;10.59;65.96
50550;BME280;36505;52.512;13.460;2023-04-09T12:38:51;102178.88;;;10.53;66.08
50550;BME280;36505;52.512;13.460;2023-04-09T12:41:17;102172.97;;;10.43;65.90
50550;BME280;36505;52.512;13.460;2023-04-09T12:43:42;102176.56;;;10.44;66.09
50550;BME280;36505;52.512;13.460;2023-04-09T12:46:08;102168.13;;;10.45;66.59
50550;BME280;36505;52.512;13.460;2023-04-09T12:48:33;102168.97;;;10.59;66.77
50550;BME280;36505;52.512;13.460;2023-04-09T12:50:59;102129.16;;;10.43;66.39
50550;BME280;36505;52.512;13.460;2023-04-09T12:53:25;102159.91;;;10.72;65.92
50550;BME280;36505;52.512;13.460;2023-04-09T12:55:50;102167.50;;;10.83;66.58
50550;BME280;36505;52.512;13.460;2023-04-09T12:58:16;102159.50;;;10.88;66.01
50550;BME280;36505;52.512;13.460;2023-04-09T13:00:41;102163.06;;;10.88;66.03
50550;BME280;36505;52.512;13.460;2023-04-09T13:03:07;102152.31;;;10.80;67.00